createdAt,value
2023-04-10T00:00:45.485Z,23
2023-04-10T00:01:47.387Z,23
2023-04-10T00:02:49.373Z,23
2023-04-10T00:03:51.238Z,23.1
2023-04-10T00:04:53.215Z,23
2023-04-10T00:05:55.276Z,23.1
2023-04-10T00:06:57.027Z,23.1
2023-04-10T00:07:58.825Z,23
2023-04-10T00:09:00.735Z,23.1
2023-04-10T00:10:02.539Z,23
2023-04-10T00:11:04.464Z,23
2023-04-10T00:12:06.240Z,23.1
2023-04-10T00:13:07.972Z,23
2023-04-10T00:14:09.856Z,23
2023-04-10T00:15:11.462Z,23.2
2023-04-10T00:16:13.341Z,23
2023-04-10T00:17:15.072Z,23
2023-04-10T00:18:16.861Z,23
2023-04-10T00:19:18.651Z,23
2023-04-10T00:20:20.527Z,22.9
2023-04-10T00:21:22.392Z,23
2023-04-10T00:22:24.028Z,23
2023-04-10T00:23:25.600Z,23
2023-04-10T00:24:27.542Z,23
2023-04-10T00:25:29.334Z,23.1
2023-04-10T00:26:31.263Z,23
2023-04-10T00:27:33.060Z,23.1
2023-04-10T00:28:34.839Z,23.1
2023-04-10T00:29:36.719Z,23
2023-04-10T00:30:38.491Z,23
2023-04-10T00:31:40.267Z,23.1
2023-04-10T00:32:41.914Z,23.2
2023-04-10T00:33:43.802Z,23.2
2023-04-10T00:34:45.614Z,23
2023-04-10T00:35:47.323Z,23.2
2023-04-10T00:36:49.059Z,23
2023-04-10T00:37:50.937Z,23.2
2023-04-10T00:38:52.681Z,23.2
2023-04-10T00:39:54.605Z,22.9
2023-04-10T00:40:56.465Z,23.1
2023-04-10T00:41:58.367Z,23.1
2023-04-10T00:43:00.248Z,23
2023-04-10T00:44:02.140Z,22.9
2023-04-10T00:45:03.870Z,23.1
2023-04-10T00:46:05.768Z,23.1
2023-04-10T00:47:07.470Z,23
2023-04-10T00:48:09.288Z,22.8
2023-04-10T00:49:11.015Z,23
2023-04-10T00:50:12.798Z,23.1
2023-04-10T00:51:14.413Z,23.1
2023-04-10T00:52:16.294Z,23
2023-04-10T00:53:18.177Z,23.1
2023-04-10T00:54:19.915Z,23.1
2023-04-10T00:55:21.844Z,23
2023-04-10T00:56:23.642Z,23.1
2023-04-10T00:57:25.354Z,23.2
2023-04-10T00:58:27.240Z,23.1
2023-04-10T00:59:29.105Z,23.1
2023-04-10T01:00:30.907Z,23.1
2023-04-10T01:01:32.852Z,23
2023-04-10T01:02:34.684Z,23
2023-04-10T01:03:36.452Z,23
2023-04-10T01:04:38.512Z,23.1
2023-04-10T01:05:40.504Z,23
2023-04-10T01:06:42.216Z,23.2
2023-04-10T01:07:44.092Z,23.1
2023-04-10T01:08:45.876Z,23
2023-04-10T01:09:47.478Z,23
2023-04-10T01:10:49.389Z,23.1
2023-04-10T01:11:51.095Z,23
2023-04-10T01:12:52.795Z,23.2
2023-04-10T01:13:54.711Z,23
2023-04-10T01:14:56.662Z,23.2
2023-04-10T01:15:58.536Z,23
2023-04-10T01:17:00.091Z,22.9
2023-04-10T01:18:01.907Z,23
2023-04-10T01:19:03.824Z,23.1
2023-04-10T01:20:05.513Z,23
2023-04-10T01:21:07.371Z,23.1
2023-04-10T01:22:09.119Z,23.1
2023-04-10T01:23:10.783Z,23.1
2023-04-10T01:24:12.660Z,23.2
2023-04-10T01:25:14.562Z,23.1
2023-04-10T01:26:16.454Z,23.2
2023-04-10T01:27:18.238Z,23.1
2023-04-10T01:28:19.988Z,23
2023-04-10T01:29:21.542Z,23
2023-04-10T01:30:23.422Z,23.1
2023-04-10T01:31:25.383Z,23
2023-04-10T01:32:27.269Z,23.1
2023-04-10T01:33:29.331Z,23.1
2023-04-10T01:34:31.407Z,23
2023-04-10T01:35:33.559Z,23
2023-04-10T01:36:35.526Z,23.1
2023-04-10T01:37:37.347Z,22.9
2023-04-10T01:38:39.052Z,23.2
2023-04-10T01:42:46.003Z,23.2
2023-04-10T01:47:54.480Z,23.2
2023-04-10T01:54:06.953Z,23.1
2023-04-10T01:55:09.025Z,23.1
2023-04-10T01:56:10.806Z,23.1
2023-04-10T02:01:28.799Z,23.1
2023-04-10T02:02:24.502Z,23.1
2023-04-10T02:03:26.680Z,23.1
2023-04-10T02:04:29.186Z,23.1
2023-04-10T02:05:31.328Z,23.1
2023-04-10T02:06:33.016Z,23.1
2023-04-10T02:07:34.635Z,23.1
2023-04-10T02:08:36.441Z,23.2
2023-04-10T02:09:38.370Z,23.1
2023-04-10T02:10:40.000Z,23.1
2023-04-10T02:11:41.720Z,23.2
2023-04-10T02:12:43.688Z,23.2
2023-04-10T02:13:45.613Z,23.2
2023-04-10T02:14:47.414Z,23
2023-04-10T02:15:49.215Z,23.2
2023-04-10T02:16:50.954Z,23.1
2023-04-10T02:17:52.908Z,23.3
2023-04-10T02:18:54.968Z,23.1
2023-04-10T02:19:56.937Z,23.1
2023-04-10T02:20:58.855Z,23
2023-04-10T02:22:00.741Z,23.1
2023-04-10T02:23:02.668Z,23.2
2023-04-10T02:24:04.369Z,23.1
2023-04-10T02:25:06.042Z,23.2
2023-04-10T02:26:08.021Z,23.2
2023-04-10T02:27:09.808Z,23.2
2023-04-10T02:28:11.804Z,23.2
2023-04-10T02:29:13.645Z,23.1
2023-04-10T02:30:15.387Z,23.1
2023-04-10T02:31:17.280Z,23.2
2023-04-10T02:32:19.274Z,23.2
2023-04-10T02:33:21.228Z,23.2
2023-04-10T02:34:23.069Z,23.1
2023-04-10T02:35:24.807Z,23.2
2023-04-10T02:36:26.737Z,23.4
2023-04-10T02:37:28.660Z,23
2023-04-10T02:38:30.517Z,23.2
2023-04-10T02:39:32.446Z,23.3
2023-04-10T02:40:34.370Z,23.2
2023-04-10T02:41:36.202Z,23.2
2023-04-10T02:42:38.111Z,23.1
2023-04-10T02:43:40.072Z,23.2
2023-04-10T02:44:41.837Z,23.2
2023-04-10T02:45:43.589Z,23.2
2023-04-10T02:46:45.589Z,23.1
2023-04-10T02:47:47.458Z,22.9
2023-04-10T02:48:49.609Z,23.2
2023-04-10T02:49:51.485Z,23
2023-04-10T02:50:53.377Z,23.1
2023-04-10T02:51:55.409Z,23
2023-04-10T02:52:57.189Z,23
2023-04-10T02:53:58.950Z,23.1
2023-04-10T02:55:00.927Z,23.2
2023-04-10T02:56:02.797Z,23.1
2023-04-10T02:57:04.476Z,23.1
2023-04-10T03:03:14.818Z,23.3
2023-04-10T03:04:16.696Z,23.2
2023-04-10T03:20:45.100Z,23
2023-04-10T03:21:47.148Z,23.2
2023-04-10T04:03:57.402Z,23
2023-04-10T08:56:05.630Z,22.5
2023-04-10T08:57:09.173Z,22.5
2023-04-10T08:58:12.429Z,22.5
2023-04-10T08:59:14.324Z,22.5
2023-04-10T09:00:22.374Z,22.5
2023-04-10T09:01:21.186Z,22.6
2023-04-10T09:02:23.422Z,22.6
2023-04-10T09:03:26.857Z,22.4
2023-04-10T09:04:29.820Z,22.5
2023-04-10T09:05:32.378Z,22.5
2023-04-10T09:06:34.299Z,22.6
2023-04-10T09:07:36.464Z,22.5
2023-04-10T09:08:38.139Z,22.7
2023-04-10T09:09:40.336Z,22.6
2023-04-10T09:10:42.533Z,22.5
2023-04-10T09:11:44.456Z,22.5
2023-04-10T09:12:46.525Z,22.6
2023-04-10T09:13:48.258Z,22.6
2023-04-10T09:14:50.179Z,22.6
2023-04-10T09:15:51.903Z,22.6
2023-04-10T09:16:54.241Z,22.6
2023-04-10T09:17:56.384Z,22.6
2023-04-10T09:18:58.467Z,22.7
2023-04-10T09:20:00.540Z,22.5
2023-04-10T09:21:02.108Z,22.6
2023-04-10T09:22:03.985Z,22.6
2023-04-10T09:23:06.085Z,22.7
2023-04-10T09:24:08.158Z,22.6
2023-04-10T09:25:10.400Z,22.5
2023-04-10T09:26:12.689Z,22.6
2023-04-10T09:27:14.761Z,22.6
2023-04-10T09:28:16.830Z,22.6
2023-04-10T09:29:18.991Z,22.6
2023-04-10T09:30:21.089Z,22.7
2023-04-10T09:31:23.187Z,22.4
2023-04-10T09:32:25.443Z,22.5
2023-04-10T09:33:27.696Z,22.5
2023-04-10T09:34:29.662Z,22.7
2023-04-10T09:35:31.671Z,22.5
2023-04-10T09:36:33.614Z,22.6
2023-04-10T09:37:35.367Z,22.7
2023-04-10T09:39:38.669Z,22.6
2023-04-10T10:54:53.711Z,22.6
2023-04-10T10:55:49.264Z,22.7
2023-04-10T10:56:51.242Z,22.7
2023-04-10T10:57:53.324Z,22.5
2023-04-10T10:58:55.590Z,22.7
2023-04-10T10:59:58.303Z,22.7
2023-04-10T11:01:00.325Z,22.7
2023-04-10T11:02:02.523Z,22.7
2023-04-10T11:03:04.871Z,22.6
2023-04-10T11:04:07.338Z,22.7
2023-04-10T11:05:09.756Z,22.6
2023-04-10T11:06:11.399Z,22.6
2023-04-10T11:07:13.190Z,22.8
2023-04-10T11:08:15.180Z,22.7
2023-04-10T11:09:16.956Z,22.6
2023-04-10T11:10:18.659Z,22.7
2023-04-10T11:11:20.655Z,22.8
2023-04-10T11:12:22.461Z,22.7
2023-04-10T11:13:24.824Z,22.6
2023-04-10T11:14:26.590Z,22.8
2023-04-10T11:15:28.852Z,22.8
2023-04-10T11:16:30.988Z,22.8
2023-04-10T11:17:33.335Z,22.7
2023-04-10T11:18:35.064Z,22.8
2023-04-10T11:19:37.036Z,22.7
2023-04-10T11:20:38.590Z,22.8
2023-04-10T11:21:40.154Z,22.7
2023-04-10T11:35:04.413Z,22.8
2023-04-10T13:03:34.749Z,22.9
2023-04-10T13:04:36.604Z,22.8
2023-04-10T13:06:40.344Z,22.9
2023-04-10T13:11:51.101Z,23
2023-04-10T13:12:54.107Z,22.9
2023-04-10T13:18:04.422Z,23
2023-04-10T13:19:07.530Z,22.9
2023-04-10T13:20:09.485Z,23
2023-04-10T13:21:11.277Z,22.8
2023-04-10T13:24:16.961Z,22.8
2023-04-10T13:25:18.792Z,23
2023-04-10T13:26:20.746Z,23
2023-04-10T13:27:22.521Z,22.9
2023-04-10T14:12:38.227Z,23
2023-04-10T14:25:05.593Z,23
2023-04-10T14:26:03.846Z,23.1
2023-04-10T14:27:05.846Z,23.1
2023-04-10T14:28:07.757Z,23.1
2023-04-10T14:29:09.709Z,23
2023-04-10T14:30:11.539Z,23
2023-04-10T14:31:13.476Z,23.1
2023-04-10T14:32:15.242Z,23
2023-04-10T14:33:18.629Z,23
2023-04-10T14:34:21.723Z,22.8
2023-04-10T14:35:23.650Z,23
2023-04-10T14:36:25.616Z,23
2023-04-10T14:37:27.533Z,23
2023-04-10T14:38:29.464Z,22.9
2023-04-10T14:39:31.393Z,23
2023-04-10T14:40:33.312Z,22.8
2023-04-10T14:41:34.944Z,23
2023-04-10T14:42:36.874Z,22.9
2023-04-10T14:43:38.537Z,23
2023-04-10T14:44:40.203Z,23.1
2023-04-10T14:45:41.909Z,23
2023-04-10T14:46:43.830Z,23
2023-04-10T14:47:45.823Z,22.9
2023-04-10T14:48:47.900Z,23
2023-04-10T14:49:49.996Z,22.9
2023-04-10T14:50:51.690Z,23
2023-04-10T14:51:53.626Z,23
2023-04-10T14:52:55.548Z,23
2023-04-10T14:53:57.084Z,22.9
2023-04-10T14:54:59.084Z,23
2023-04-10T14:56:01.020Z,22.9
2023-04-10T14:57:02.817Z,23
2023-04-10T14:58:04.489Z,22.8
2023-04-10T14:59:06.075Z,22.9
2023-04-10T15:00:07.703Z,22.9
2023-04-10T15:01:09.456Z,23
2023-04-10T15:02:11.496Z,23
2023-04-10T15:03:13.542Z,23
2023-04-10T15:04:15.711Z,22.9
2023-04-10T15:05:17.848Z,22.8
2023-04-10T15:06:19.742Z,23
2023-04-10T15:07:21.743Z,22.9
2023-04-10T15:08:23.611Z,23
2023-04-10T15:09:25.358Z,23
2023-04-10T15:10:27.306Z,23
2023-04-10T15:11:29.238Z,23
2023-04-10T15:12:31.184Z,22.9
2023-04-10T15:13:32.905Z,23
2023-04-10T15:14:34.848Z,23
2023-04-10T15:15:36.788Z,22.9
2023-04-10T15:16:38.515Z,22.8
2023-04-10T15:17:40.181Z,23
2023-04-10T15:18:41.727Z,23
2023-04-10T15:19:43.701Z,22.9
2023-04-10T15:20:45.758Z,23
2023-04-10T15:21:47.563Z,23
2023-04-10T15:22:49.520Z,22.9
2023-04-10T15:23:51.455Z,23
2023-04-10T15:24:53.778Z,22.9
2023-04-10T15:25:55.419Z,23
2023-04-10T15:26:57.263Z,23
2023-04-10T15:28:00.850Z,23
2023-04-10T15:29:03.974Z,23
2023-04-10T15:30:05.772Z,23
2023-04-10T15:31:07.564Z,23
2023-04-10T15:32:09.454Z,23
2023-04-10T15:33:11.241Z,23.1
2023-04-10T15:34:13.129Z,23
2023-04-10T15:35:15.001Z,23.2
2023-04-10T15:36:16.892Z,23
2023-04-10T15:37:18.714Z,22.9
2023-04-10T15:38:20.404Z,23
2023-04-10T15:39:22.262Z,22.9
2023-04-10T15:40:24.130Z,23
2023-04-10T15:41:26.006Z,23
2023-04-10T15:42:27.686Z,22.9
2023-04-10T15:43:29.491Z,23
2023-04-10T15:44:31.383Z,23.1
2023-04-10T15:45:33.262Z,23
2023-04-10T15:46:35.172Z,22.8
2023-04-10T15:47:37.128Z,23.1
2023-04-10T15:48:39.021Z,22.9
2023-04-10T15:49:40.923Z,22.9
2023-04-10T15:50:42.643Z,22.9
2023-04-10T15:51:44.796Z,22.9
2023-04-10T15:52:46.494Z,22.9
2023-04-10T15:53:48.470Z,23
2023-04-10T15:54:50.197Z,22.9
2023-04-10T15:55:51.699Z,23
2023-04-10T15:56:53.582Z,22.9
2023-04-10T15:57:55.223Z,23.1
2023-04-10T15:58:56.938Z,23
2023-04-10T15:59:58.656Z,23
2023-04-10T16:01:00.352Z,22.8
2023-04-10T16:02:02.273Z,22.9
2023-04-10T16:03:04.388Z,23
2023-04-10T16:04:06.512Z,22.9
2023-04-10T16:05:08.413Z,22.9
2023-04-10T16:06:10.231Z,22.9
2023-04-10T16:07:12.129Z,22.9
2023-04-10T16:08:13.919Z,22.9
2023-04-10T16:09:25.191Z,22.9
2023-04-10T16:10:20.720Z,23
2023-04-10T16:11:22.366Z,23
2023-04-10T16:12:24.055Z,22.9
2023-04-10T16:13:25.920Z,23.1
2023-04-10T16:14:27.510Z,22.9
2023-04-10T16:15:29.375Z,22.9
2023-04-10T16:16:31.273Z,23
2023-04-10T16:17:32.969Z,23
2023-04-10T16:18:34.670Z,22.9
2023-04-10T16:19:36.562Z,23.1
2023-04-10T16:20:38.321Z,22.9
2023-04-10T16:21:40.225Z,23
2023-04-10T16:22:42.225Z,22.8
2023-04-10T16:23:44.115Z,23
2023-04-10T16:24:45.736Z,22.9
2023-04-10T16:25:47.607Z,22.8
2023-04-10T16:26:49.472Z,22.9
2023-04-10T16:27:51.027Z,22.9
2023-04-10T16:28:52.667Z,22.9
2023-04-10T16:29:54.731Z,22.8
2023-04-10T16:30:56.562Z,22.8
2023-04-10T16:31:58.373Z,23
2023-04-10T16:33:00.201Z,23
2023-04-10T16:34:02.122Z,23.1
2023-04-10T16:35:03.853Z,23
2023-04-10T16:36:05.667Z,23
2023-04-10T16:37:07.441Z,23
2023-04-10T16:38:09.673Z,23
2023-04-10T16:39:11.755Z,23
2023-04-10T16:40:13.817Z,23.1
2023-04-10T16:41:15.767Z,22.8
2023-04-10T16:42:17.538Z,22.9
2023-04-10T18:28:17.022Z,23
2023-04-10T18:29:20.624Z,23.1
2023-04-10T18:30:22.595Z,23
2023-04-10T18:31:24.434Z,23
2023-04-10T18:32:26.580Z,23
2023-04-10T18:33:28.445Z,22.9
2023-04-10T18:35:31.877Z,23
2023-04-10T18:36:33.879Z,23.1
2023-04-10T18:37:35.815Z,23.1
2023-04-10T18:38:37.858Z,23.1
2023-04-10T18:39:39.645Z,22.9
2023-04-10T18:40:41.467Z,23.1
2023-04-10T18:41:43.471Z,23.1
2023-04-10T18:43:54.165Z,23
2023-04-10T18:44:52.149Z,23.2
2023-04-10T18:45:54.131Z,22.9
2023-04-10T18:47:03.693Z,23
2023-04-10T18:48:01.606Z,23.1
2023-04-10T18:49:03.705Z,23
2023-04-10T18:50:05.582Z,23.2
2023-04-10T18:51:07.138Z,23.1
2023-04-10T18:52:09.003Z,23
2023-04-10T18:53:10.868Z,22.9
2023-04-10T18:54:12.737Z,22.9
2023-04-10T18:55:14.517Z,23
2023-04-10T18:56:16.258Z,23.1
2023-04-10T18:57:18.186Z,23
2023-04-10T18:58:20.111Z,23.1
2023-04-10T18:59:22.003Z,23.1
2023-04-10T19:00:23.866Z,22.9
2023-04-10T19:01:25.890Z,22.9
2023-04-10T19:02:28.096Z,23.2
2023-04-10T19:03:30.178Z,23
2023-04-10T19:04:32.086Z,23
2023-04-10T19:05:33.923Z,23
2023-04-10T19:06:35.834Z,23
2023-04-10T19:07:37.711Z,23.1
2023-04-10T19:08:39.402Z,23
2023-04-10T19:09:41.322Z,23.2
2023-04-10T19:10:43.205Z,23.2
2023-04-10T19:11:45.129Z,23.1
2023-04-10T19:12:47.092Z,23
2023-04-10T19:13:48.981Z,22.9
2023-04-10T19:14:50.628Z,23
2023-04-10T19:15:52.446Z,23
2023-04-10T19:16:54.278Z,23
2023-04-10T19:17:56.327Z,23
2023-04-10T19:18:58.019Z,22.9
2023-04-10T19:19:59.749Z,23.1
2023-04-10T19:21:01.624Z,22.9
2023-04-10T19:22:03.260Z,23.1
2023-04-10T19:23:05.136Z,23
2023-04-10T19:24:07.011Z,23
2023-04-10T19:25:08.912Z,23
2023-04-10T19:26:10.810Z,23.1
2023-04-10T19:27:12.509Z,23.1
2023-04-10T19:28:14.444Z,23
2023-04-10T19:29:16.211Z,23.1
2023-04-10T19:30:18.131Z,22.9
2023-04-10T19:31:20.077Z,23.1
2023-04-10T19:32:21.880Z,23.1
2023-04-10T19:33:23.844Z,23
2023-04-10T19:34:25.752Z,23.1
2023-04-10T19:35:27.642Z,23
2023-04-10T19:36:29.557Z,23
2023-04-10T19:37:31.486Z,23.1
2023-04-10T19:38:33.392Z,23.1
2023-04-10T19:39:35.019Z,23
2023-04-10T19:40:36.722Z,23.1
2023-04-10T19:41:38.596Z,23
2023-04-10T19:42:40.359Z,23
2023-04-10T19:43:42.486Z,23.1
2023-04-10T19:44:43.928Z,23
2023-04-10T19:45:46.122Z,23.2
2023-04-10T19:46:48.056Z,23
2023-04-10T19:47:49.999Z,23.2
2023-04-10T19:48:51.970Z,23.1
2023-04-10T19:49:53.901Z,23
2023-04-10T19:50:55.848Z,23.1
2023-04-10T19:51:57.660Z,23.1
2023-04-10T19:52:59.463Z,23.1
2023-04-10T19:54:01.479Z,23.1
2023-04-10T19:55:03.400Z,23.1
2023-04-10T19:56:05.307Z,23.2
2023-04-10T19:57:07.085Z,23.1
2023-04-10T19:58:10.844Z,23
2023-04-10T19:59:13.880Z,23
2023-04-10T20:00:15.840Z,23.2
2023-04-10T20:01:17.673Z,23
2023-04-10T20:02:19.546Z,23.1
2023-04-10T20:03:21.475Z,23.1
2023-04-10T20:04:23.527Z,23.1
2023-04-10T20:05:25.414Z,22.9
2023-04-10T20:06:27.237Z,23.1
2023-04-10T20:07:29.044Z,23.2
2023-04-10T20:08:30.767Z,23.1
2023-04-10T20:09:32.708Z,23.1
2023-04-10T20:10:34.585Z,23
2023-04-10T20:11:36.329Z,23
2023-04-10T20:12:38.219Z,23.1
2023-04-10T20:13:40.117Z,23
2023-04-10T20:14:41.821Z,23.2
2023-04-10T20:15:43.559Z,23
2023-04-10T20:16:45.422Z,23.2
2023-04-10T20:17:47.141Z,23.1
2023-04-10T20:18:48.856Z,23
2023-04-10T20:19:50.450Z,23
2023-04-10T20:20:52.344Z,23.2
2023-04-10T20:21:54.045Z,23.1
2023-04-10T20:22:55.815Z,23.1
2023-04-10T20:23:57.583Z,23
2023-04-10T20:24:59.377Z,23.1
2023-04-10T20:26:00.886Z,23
2023-04-10T20:27:02.633Z,23
2023-04-10T20:28:04.534Z,23.1
2023-04-10T20:29:06.275Z,23
2023-04-10T20:30:07.930Z,23.2
2023-04-10T20:31:09.709Z,23
2023-04-10T20:32:11.626Z,23.1
2023-04-10T20:33:13.519Z,23.2
2023-04-10T20:34:15.419Z,23.2
2023-04-10T20:35:17.169Z,23.1
2023-04-10T20:36:19.061Z,23.1
2023-04-10T20:37:20.721Z,23.1
2023-04-10T20:38:22.524Z,23
2023-04-10T20:39:24.426Z,23
2023-04-10T20:40:26.308Z,23.2
2023-04-10T20:41:28.064Z,23.1
2023-04-10T20:42:29.878Z,23.1
2023-04-10T20:43:31.758Z,23.2
2023-04-10T20:44:33.493Z,23.1
2023-04-10T20:45:35.118Z,22.9
2023-04-10T20:46:37.065Z,23.2
2023-04-10T20:47:39.038Z,23.2
2023-04-10T20:48:40.952Z,23.2
2023-04-10T20:49:42.823Z,23
2023-04-10T20:50:44.695Z,23.2
2023-04-10T20:51:46.427Z,23.1
2023-04-10T20:52:48.180Z,23.1
2023-04-10T20:53:50.084Z,23
2023-04-10T20:54:51.736Z,23
2023-04-10T20:55:53.633Z,23.2
2023-04-10T20:56:55.435Z,23.1
2023-04-10T20:57:57.086Z,23
2023-04-10T20:58:58.973Z,23.2
2023-04-10T21:00:00.900Z,23.1
2023-04-10T21:01:02.592Z,23
2023-04-10T21:02:04.577Z,22.9
2023-04-10T21:03:06.449Z,23
2023-04-10T21:04:08.505Z,23
2023-04-10T21:05:10.256Z,23.1
2023-04-10T21:06:12.160Z,23.2
2023-04-10T21:07:13.974Z,23.1
2023-04-10T21:08:15.832Z,23.3
2023-04-10T21:09:17.716Z,23.1
2023-04-10T21:10:19.463Z,23.2
2023-04-10T21:11:21.366Z,23
2023-04-10T21:12:23.124Z,23
2023-04-10T21:13:24.929Z,23.1
2023-04-10T21:14:26.834Z,23.1
2023-04-10T21:15:28.489Z,23.2
2023-04-10T21:16:30.452Z,23
2023-04-10T21:17:32.408Z,23
2023-04-10T21:18:34.159Z,22.9
2023-04-10T21:19:36.033Z,23
2023-04-10T21:20:37.915Z,23.1
2023-04-10T21:21:39.708Z,23
2023-04-10T21:22:41.343Z,23
2023-04-10T21:23:43.217Z,23
2023-04-10T21:24:44.949Z,22.9
2023-04-10T21:25:46.740Z,23
2023-04-10T21:26:48.432Z,23
2023-04-10T21:27:50.135Z,23.1
2023-04-10T21:28:51.971Z,23.1
2023-04-10T21:29:53.701Z,23.1
2023-04-10T21:30:55.366Z,23
2023-04-10T21:31:57.098Z,23
2023-04-10T21:32:59.061Z,23
2023-04-10T21:34:00.969Z,23.1
2023-04-10T21:35:02.851Z,23
2023-04-10T21:36:04.782Z,23.1
2023-04-10T21:37:06.678Z,23
2023-04-10T21:38:08.360Z,23
2023-04-10T21:39:10.245Z,23
2023-04-10T21:40:11.785Z,23
2023-04-10T21:41:13.672Z,23
2023-04-10T21:42:15.372Z,23
2023-04-10T21:43:17.143Z,23
2023-04-10T21:44:18.949Z,22.9
2023-04-10T21:45:20.620Z,23
2023-04-10T21:46:22.570Z,23
2023-04-10T21:47:24.435Z,23
2023-04-10T21:48:26.435Z,23.1
2023-04-10T21:49:28.280Z,22.9
2023-04-10T21:50:30.165Z,23
2023-04-10T21:51:32.063Z,23.1
2023-04-10T21:52:33.956Z,23
2023-04-10T21:53:35.896Z,22.9
2023-04-10T21:54:37.764Z,23.1
2023-04-10T21:55:39.486Z,22.9
2023-04-10T21:56:41.210Z,23
2023-04-10T21:57:43.102Z,23
2023-04-10T21:58:44.969Z,22.9
2023-04-10T21:59:46.709Z,23
2023-04-10T22:00:48.467Z,22.9
2023-04-10T22:01:50.172Z,23.2
2023-04-10T22:02:51.988Z,23
2023-04-10T22:03:54.442Z,22.9
2023-04-10T22:13:12.247Z,23
2023-04-10T22:14:17.404Z,23
2023-04-10T22:15:19.632Z,23
2023-04-10T22:16:21.514Z,23.1
2023-04-10T22:17:23.272Z,23
2023-04-10T22:18:24.904Z,23.1
2023-04-10T22:19:26.970Z,23
2023-04-10T22:20:28.877Z,23.1
2023-04-10T22:21:30.644Z,23.1
2023-04-10T22:22:32.422Z,23
2023-04-10T22:23:34.297Z,22.9
2023-04-10T22:24:36.019Z,23
2023-04-10T22:25:38.819Z,23
2023-04-10T22:26:40.651Z,23.1
2023-04-10T22:27:42.506Z,23
2023-04-10T22:28:44.366Z,23.1
2023-04-10T22:29:50.238Z,22.9
2023-04-10T22:30:51.072Z,23
2023-04-10T22:31:53.032Z,23.1
2023-04-10T22:32:54.678Z,23
2023-04-10T22:33:56.561Z,23
2023-04-10T22:34:58.465Z,23.1
2023-04-10T22:36:00.315Z,23.1
2023-04-10T22:37:01.923Z,23.1
2023-04-10T22:38:03.351Z,23
2023-04-10T22:39:05.110Z,23
2023-04-10T22:40:06.978Z,23
2023-04-10T22:41:08.675Z,23.1
2023-04-10T22:42:10.357Z,23
2023-04-10T22:43:12.226Z,23
2023-04-10T22:44:14.026Z,23
2023-04-10T22:45:15.897Z,23
2023-04-10T22:46:17.895Z,23.1
2023-04-10T22:47:19.618Z,23.2
2023-04-10T22:48:21.508Z,23.1
2023-04-10T22:49:23.464Z,23.1
2023-04-10T22:50:25.429Z,23
2023-04-10T22:51:27.239Z,23
2023-04-10T22:52:29.128Z,23
2023-04-10T22:53:31.004Z,23
2023-04-10T22:54:32.867Z,23
2023-04-10T22:55:34.734Z,23
2023-04-10T22:56:36.369Z,23.2
2023-04-10T22:57:37.944Z,23.1
2023-04-10T22:58:39.741Z,23.2
2023-04-10T22:59:41.616Z,23.1
2023-04-10T23:00:43.488Z,23
2023-04-10T23:01:45.232Z,23.1
2023-04-10T23:02:46.935Z,23.1
2023-04-10T23:03:48.533Z,23.2
2023-04-10T23:04:50.368Z,23.1
2023-04-10T23:05:52.331Z,23
2023-04-10T23:06:53.963Z,23
2023-04-10T23:07:55.653Z,23
2023-04-10T23:08:57.515Z,23.1
2023-04-10T23:09:59.221Z,23.1
2023-04-10T23:11:01.000Z,23
2023-04-10T23:12:02.868Z,23
2023-04-10T23:13:04.344Z,23.1
2023-04-10T23:14:05.878Z,23.1
2023-04-10T23:15:07.750Z,23
2023-04-10T23:16:09.647Z,23.2
2023-04-10T23:17:11.556Z,23
2023-04-10T23:18:13.337Z,23.1
2023-04-10T23:19:15.225Z,23.3
2023-04-10T23:20:16.994Z,23
2023-04-10T23:21:18.894Z,23.1
2023-04-10T23:22:20.528Z,23.1
2023-04-10T23:23:22.453Z,23
2023-04-10T23:24:24.547Z,23.1
2023-04-10T23:25:26.446Z,23.2
2023-04-10T23:26:28.487Z,23
2023-04-10T23:27:30.085Z,23
2023-04-10T23:28:32.020Z,23.1
2023-04-10T23:29:33.632Z,23
2023-04-10T23:30:35.228Z,23
2023-04-10T23:33:40.468Z,23.2
2023-04-10T23:35:43.814Z,23.1
2023-04-10T23:53:14.645Z,23.2
